Flight Track Log - Related Links

Times and Time Zones

All times are in EDT time to prevent confusion due to time zone crossing. See the UAL33 flight status page for this flight to view local times or setup timezone preferences in your user account.


Time Position Orientation Groundspeed Altitude Reporting Facility
EDT Latitude Longitude Course Direction KTS MPH feet Rate Location/Type
Sun 10:18:15 PM 42.0500 -88.0167 252° West 260 299 5,000  Level Chicago TRACON
Sun 10:19:00 PM 41.8632 -88.3671 242° Southwest  Level FlightAware Approximate
Sun 10:19:27 PM 42.0547 -88.1356 273° West 269 310 9,900  Level Chicago Center
Sun 10:20:00 PM 41.8246 -88.5230 254° West  Level FlightAware Approximate
Sun 10:20:28 PM 42.0544 -88.2417 270° West 281 323 13,200  Level Chicago Center
Sun 10:21:00 PM 41.7896 -88.6811 254° West  Level FlightAware Approximate
Sun 10:21:30 PM 42.0300 -88.3461 253° West 301 346 15,600  Level Chicago Center
Sun 10:22:00 PM 41.7545 -88.8390 253° West  Level FlightAware Approximate
Sun 10:22:31 PM 41.9736 -88.4339 229° Southwest 312 359 19,000  Level Chicago Center
Sun 10:23:00 PM 41.7177 -88.9961 252° West  Level FlightAware Approximate
Sun 10:23:33 PM 41.9111 -88.5586 236° Southwest 341 392 21,400  Level Chicago Center
Sun 10:24:35 PM 41.8731 -88.6967 250° West 396 456 22,800 1,268 Climbing Chicago Center
Sun 10:25:36 PM 41.8311 -88.8506 250° West 429 494 24,000 1,317 Climbing Chicago Center
Sun 10:26:38 PM 41.7831 -89.0200 249° West 474 545 25,500 1,512 Climbing Chicago Center
Sun 10:27:39 PM 41.7353 -89.1928 250° West 494 568 27,100 1,659 Climbing Chicago Center
Sun 10:28:41 PM 41.6864 -89.3706 250° West 509 586 28,900 2,341 Climbing Chicago Center
Sun 10:29:42 PM 41.5733 -89.5228 225° Southwest 488 562 31,900 2,585 Climbing Chicago Center
Sun 10:30:44 PM 41.4569 -89.6236 213° Southwest 487 560 34,200 1,951 Climbing Chicago Center
Sun 10:31:45 PM 41.3494 -89.7178 213° Southwest 470 541 35,900 878 Climbing Chicago Center
Sun 10:32:47 PM 41.2425 -89.8108 213° Southwest 463 533 36,000 244 Climbing Chicago Center
Sun 10:33:48 PM 41.1364 -89.9011 213° Southwest 457 526 36,400 732 Climbing Chicago Center
Sun 10:34:50 PM 41.0325 -89.9903 213° Southwest 451 519 37,500 1,024 Climbing Chicago Center
Sun 10:35:51 PM 40.9144 -90.1028 216° Southwest 457 526 38,500 878 Climbing Chicago Center
Sun 10:36:53 PM 40.8106 -90.1986 215° Southwest 458 527 39,300 683 Climbing Chicago Center
Sun 10:37:54 PM 40.7061 -90.3033 217° Southwest 458 527 39,900 341 Climbing Chicago Center
Sun 10:38:56 PM 40.6031 -90.4022 216° Southwest 461 531 40,000 49 Climbing Chicago Center
Sun 10:39:57 PM 40.4994 -90.5014 216° Southwest 462 532 40,000  Level Chicago Center
Sun 10:40:59 PM 40.3944 -90.6019 216° Southwest 465 535 40,000  Level Chicago Center
Sun 10:42:00 PM 40.2903 -90.7008 216° Southwest 466 536 40,000  Level Chicago Center
Sun 10:43:01 PM 40.1867 -90.7967 215° Southwest 464 534 40,000  Level Chicago Center
Sun 10:43:51 PM 40.1028 -90.8747 215° Southwest 461 531 40,000  Level Kansas City Center
Sun 10:44:52 PM 39.9800 -90.9914 216° Southwest 461 531 40,000  Level Kansas City Center
Sun 10:45:53 PM 39.8767 -91.0883 216° Southwest 461 531 40,000  Level Kansas City Center
Sun 10:46:55 PM 39.7728 -91.1856 216° Southwest 461 531 40,000  Level Kansas City Center
Sun 10:47:56 PM 39.6700 -91.2803 215° Southwest 460 529 40,000  Level Kansas City Center
Sun 10:48:57 PM 39.5644 -91.3794 216° Southwest 463 533 40,000  Level Kansas City Center
Sun 10:49:58 PM 39.4586 -91.4761 215° Southwest 467 537 40,000  Level Kansas City Center
Sun 10:51:00 PM 39.3528 -91.5731 215° Southwest 469 540 40,000  Level Kansas City Center
Sun 10:52:01 PM 39.2300 -91.6853 215° Southwest 458 527 40,000  Level Kansas City Center
Sun 10:53:02 PM 39.1331 -91.7764 216° Southwest 460 529 40,000  Level Kansas City Center
Sun 10:54:03 PM 39.0267 -91.8722 215° Southwest 466 536 40,000  Level Kansas City Center
Sun 10:55:05 PM 38.9181 -91.9714 215° Southwest 473 544 40,000  Level Kansas City Center
Sun 10:56:06 PM 38.8117 -92.0667 215° Southwest 469 540 40,000  Level Kansas City Center
Sun 10:57:07 PM 38.7044 -92.1622 215° Southwest 470 541 40,000  Level Kansas City Center
Sun 10:58:08 PM 38.5764 -92.2775 215° Southwest 470 541 40,000  Level Kansas City Center
Sun 10:59:10 PM 38.4697 -92.3736 215° Southwest 470 541 40,000  Level Kansas City Center
Sun 11:00:11 PM 38.3614 -92.4683 214° Southwest 472 543 40,000  Level Kansas City Center
Sun 11:01:12 PM 38.2558 -92.5628 215° Southwest 469 540 40,000  Level Kansas City Center
Sun 11:02:13 PM 38.1419 -92.6611 214° Southwest 471 542 40,000  Level Kansas City Center
Sun 11:03:14 PM 38.0408 -92.7500 215° Southwest 473 544 40,000  Level Kansas City Center
Sun 11:04:15 PM 37.9331 -92.8422 214° Southwest 472 543 40,000 -49 Level Kansas City Center
Sun 11:05:16 PM 37.8272 -92.9325 214° Southwest 465 535 39,900 -885 Descending Kansas City Center
Sun 11:06:17 PM 37.7036 -93.0400 215° Southwest 453 521 38,200 -934 Descending Kansas City Center
Sun 11:07:18 PM 37.5981 -93.1292 214° Southwest 454 522 38,000 -98 Descending Kansas City Center
Sun 11:08:20 PM 37.4942 -93.2189 214° Southwest 453 521 38,000  Level Kansas City Center
Sun 11:09:21 PM 37.3875 -93.3092 214° Southwest 460 529 38,000  Level Kansas City Center
Sun 11:10:22 PM 37.2775 -93.4028 214° Southwest 471 542 38,000  Level Kansas City Center
Sun 11:11:23 PM 37.1661 -93.4967 214° Southwest 479 551 38,000  Level Kansas City Center
Sun 11:12:24 PM 37.0561 -93.5917 215° Southwest 481 554 38,000  Level Kansas City Center
Sun 11:13:25 PM 36.9433 -93.6844 213° Southwest 483 556 38,000  Level Kansas City Center
Sun 11:14:26 PM 36.8297 -93.7811 214° Southwest 482 555 38,000  Level Kansas City Center
Sun 11:15:27 PM 36.7172 -93.8767 214° Southwest 484 557 38,000  Level Kansas City Center
Sun 11:16:28 PM 36.6033 -93.9717 214° Southwest 489 563 38,000  Level Kansas City Center
Sun 11:17:29 PM 36.4928 -94.0636 214° Southwest 482 555 38,000  Level Kansas City Center
Sun 11:18:32 PM 36.3694 -94.1636 213° Southwest 497 572 38,000  Level Memphis Center
Sun 11:19:32 PM 36.2583 -94.2564 214° Southwest 497 572 38,000  Level Memphis Center
Sun 11:20:32 PM 36.1447 -94.3536 215° Southwest 497 572 38,000  Level Memphis Center
Sun 11:21:32 PM 36.0333 -94.4458 214° Southwest 497 572 38,000  Level Memphis Center
Sun 11:22:32 PM 35.9156 -94.5400 213° Southwest 497 572 38,000  Level Memphis Center
Sun 11:23:32 PM 35.8039 -94.6314 214° Southwest 497 572 38,000  Level Memphis Center
Sun 11:24:32 PM 35.6858 -94.7275 213° Southwest 503 579 38,000  Level Memphis Center
Sun 11:26:50 PM 35.4092 -94.9533 214° Southwest 504 580 38,000  Level Fort Worth Center
Sun 11:27:50 PM 35.2942 -95.0481 214° Southwest 504 580 38,000  Level Fort Worth Center
Sun 11:28:50 PM 35.1750 -95.1403 212° Southwest 504 580 38,000  Level Fort Worth Center
Sun 11:29:50 PM 35.0600 -95.2347 214° Southwest 504 580 38,000  Level Fort Worth Center
Sun 11:30:50 PM 34.9447 -95.3289 214° Southwest 504 580 38,000  Level Fort Worth Center
Sun 11:31:50 PM 34.8272 -95.4228 213° Southwest 504 580 38,000  Level Fort Worth Center
Sun 11:32:50 PM 34.7056 -95.5167 212° Southwest 509 586 38,000  Level Fort Worth Center
Sun 11:33:50 PM 34.5964 -95.5972 211° Southwest 509 586 38,000  Level Fort Worth Center
Sun 11:34:50 PM 34.4767 -95.6903 213° Southwest 522 601 38,000  Level Fort Worth Center
Sun 11:35:50 PM 34.3569 -95.7833 213° Southwest 517 595 38,000  Level Fort Worth Center
Sun 11:36:50 PM 34.2350 -95.8761 212° Southwest 517 595 38,000  Level Fort Worth Center
Sun 11:37:50 PM 34.1131 -95.9711 213° Southwest 522 601 38,000  Level Fort Worth Center
Sun 11:38:50 PM 33.9992 -96.0631 214° Southwest 511 588 38,000  Level Fort Worth Center
Sun 11:39:50 PM 33.8769 -96.1575 213° Southwest 517 595 38,000  Level Fort Worth Center
Sun 11:40:50 PM 33.7569 -96.2492 212° Southwest 522 601 38,000  Level Fort Worth Center
Sun 11:41:50 PM 33.6367 -96.3406 212° Southwest 522 601 38,000  Level Fort Worth Center
Sun 11:42:50 PM 33.5142 -96.4319 212° Southwest 517 595 38,000  Level Fort Worth Center
Sun 11:43:50 PM 33.3917 -96.5253 212° Southwest 522 601 38,000  Level Fort Worth Center
Sun 11:44:50 PM 33.2692 -96.6183 212° Southwest 517 595 38,000  Level Fort Worth Center
Sun 11:45:50 PM 33.1339 -96.6594 194° South 508 585 38,000  Level Fort Worth Center
Sun 11:46:50 PM 32.9856 -96.6431 175° South 508 585 38,000  Level Fort Worth Center
Sun 11:47:50 PM 32.8392 -96.6297 176° South 519 597 38,000  Level Fort Worth Center
Sun 11:48:50 PM 32.6911 -96.6161 176° South 525 604 38,000  Level Fort Worth Center
Sun 11:49:50 PM 32.5447 -96.6025 176° South 535 616 38,000  Level Fort Worth Center
Sun 11:50:50 PM 32.4006 -96.5939 177° South 535 616 38,000  Level Fort Worth Center
Sun 11:51:50 PM 32.2544 -96.5806 176° South 535 616 38,000  Level Fort Worth Center
Sun 11:52:50 PM 32.1083 -96.5672 176° South 535 616 38,000  Level Fort Worth Center
Sun 11:53:50 PM 31.9642 -96.5564 176° South 535 616 38,000  Level Fort Worth Center
Sun 11:54:47 PM 31.8175 -96.5411 175° South 522 601 38,000  Level Houston Center
Sun 11:55:47 PM 31.6731 -96.5292 176° South 517 595 38,000 -843 Level Houston Center
Sun 11:56:48 PM 31.5542 -96.5164 175° South 513 590 36,300 -2,557 Descending Houston Center
Sun 11:57:49 PM 31.4167 -96.4733 165° South 508 585 32,800 -3,719 Descending Houston Center
Sun 11:58:49 PM 31.2844 -96.3922 152° Southeast 527 606 28,800 -3,719 Descending Houston Center
Sun 11:59:50 PM 31.1503 -96.3061 151° Southeast 537 618 25,300 -3,148 Descending Houston Center
Mon 12:00:51 AM 31.0228 -96.2244 151° Southeast 523 602 22,400 -2,876 Descending Houston Center
Mon 12:01:51 AM 30.9014 -96.1478 152° Southeast 501 577 19,500 -2,876 Descending Houston Center
Mon 12:02:52 AM 30.7864 -96.0742 151° Southeast 477 549 16,600 -2,975 Descending Houston Center
Mon 12:03:52 AM 30.6664 -95.9986 152° Southeast 450 518 13,500 -2,907 Descending Houston Center
Mon 12:04:29 AM 30.5997 -95.9550 151° Southeast 419 482 11,900 -2,507 Descending Houston Center
Mon 12:04:59 AM 30.5508 -95.9244 152° Southeast 394 453 10,700 -1,271 Descending Houston Center
Mon 12:05:54 AM 30.4728 -95.8761 152° Southeast 389 448 10,100 -545 Descending Houston Center
Mon 12:07:00 AM 30.3911 -95.8000 141° Southeast 303 349 9,600 -694 Descending Houston Center
Mon 12:07:55 AM 30.3269 -95.7736 160° South 320 368 8,700 -1,096 Descending Houston Center
Mon 12:08:55 AM 30.2539 -95.7542 167° South 287 330 7,500 -1,190 Descending Houston Center
Mon 12:09:56 AM 30.1781 -95.7333 167° South 283 326 6,300 -1,140 Descending Houston Center
Mon 12:10:56 AM 30.1039 -95.7122 166° South 278 320 5,200 -1,030 Descending Houston Center
Mon 12:12:10 AM 30.0139 -95.6894 168° South 230 265 4,000 -533 Descending Houston Center
Mon 12:13:11 AM 29.9922 -95.6342 114° Southeast 199 229 4,000 -56 Level Houston Center
Mon 12:13:58 AM 29.9911 -95.5897 92° East 218 251 3,900 -667 Descending Houston Center
Mon 12:14:59 AM 29.9933 -95.5261 88° East 205 236 2,800 -1,041 Descending Houston Center
Mon 12:15:59 AM 29.9936 -95.4642 90° East 201 231 1,800 -843 Descending Houston Center
Mon 12:17:00 AM 29.9944 -95.4150 89° East 178 205 1,100 -694 Descending Houston Center
Mon 12:18:00 AM 29.9939 -95.3717 91° East 150 173 400 -700 Descending Houston Center
Mon 12:19:00 AM 29.9833 -95.3333 131° Southeast  Level FlightAware Approximate
Mon 12:26:00 AM 29.9844 -95.3414 131° Southeast  Level Estimated

Login

Don't have an account? Register now (free) for customized features, flight alerts, and more!